Time;durP1;ratioP1;P1;durP2;ratioP2;P2;SDS_P1;SDS_P2;PMS_P1;PMS_P2;Temp;Humidity;BMP_temperature;BMP_pressure;BME280_temperature;BME280_humidity;BME280_pressure;Samples;Min_cycle;Max_cycle;Signal;HPM_P1;HPM_P2
2021/12/15 00:02:02;;;;;;;200.10;36.90;;;;;;;8.43;100.00;102926.84;5010631;28;20080;-90
2021/12/15 00:04:50;;;;;;;199.75;37.38;;;;;;;8.39;100.00;102922.47;4994899;28;20061;-90
2021/12/15 00:07:45;;;;;;;203.07;37.83;;;;;;;8.40;100.00;102928.47;5007862;28;20471;-91
2021/12/15 00:13:31;;;;;;;210.63;37.42;;;;;;;8.31;100.00;102919.75;5026783;28;20545;-90
2021/12/15 00:16:45;;;;;;;201.85;36.55;;;;;;;8.25;100.00;102909.25;5009362;28;20406;-90
2021/12/15 00:23:14;;;;;;;198.00;35.95;;;;;;;8.24;100.00;102912.69;5009227;28;20053;-90
2021/12/15 00:26:00;;;;;;;205.70;35.88;;;;;;;8.29;100.00;102923.09;4983353;28;20097;-91
2021/12/15 00:29:03;;;;;;;195.90;37.28;;;;;;;8.35;100.00;102925.81;5001374;28;20022;-91
2021/12/15 00:32:04;;;;;;;198.88;36.25;;;;;;;8.26;100.00;102902.34;5017618;28;20044;-91
2021/12/15 00:34:57;;;;;;;207.27;37.15;;;;;;;8.39;100.00;102925.06;5001719;28;20104;-90
2021/12/15 00:38:00;;;;;;;212.10;37.42;;;;;;;8.36;100.00;102924.97;4989071;28;20030;-91
2021/12/15 00:40:59;;;;;;;209.00;38.08;;;;;;;8.32;100.00;102912.84;4993536;28;20040;-90
2021/12/15 00:43:59;;;;;;;204.60;37.05;;;;;;;8.30;100.00;102907.66;5031993;28;20105;-91
2021/12/15 00:46:52;;;;;;;202.15;36.35;;;;;;;8.37;100.00;102913.81;5025074;28;20064;-91
2021/12/15 00:49:46;;;;;;;195.27;35.03;;;;;;;8.31;100.00;102901.66;5028772;28;20029;-91
2021/12/15 00:52:39;;;;;;;214.93;38.25;;;;;;;8.34;100.00;102908.56;5004566;28;20063;-90
2021/12/15 00:55:21;;;;;;;213.85;38.22;;;;;;;8.37;100.00;102906.06;5052268;28;20063;-90
2021/12/15 00:58:05;;;;;;;216.77;39.75;;;;;;;8.36;100.00;102906.03;5063282;28;20470;-91
2021/12/15 01:01:01;;;;;;;210.45;36.83;;;;;;;8.36;100.00;102909.47;5047901;28;20029;-90
2021/12/15 01:04:03;;;;;;;205.10;36.53;;;;;;;8.39;100.00;102916.44;5026346;28;20021;-91
2021/12/15 01:06:37;;;;;;;203.25;35.47;;;;;;;8.32;100.00;102902.53;5030849;28;20028;-91
2021/12/15 01:09:23;;;;;;;196.23;34.55;;;;;;;8.32;100.00;102902.53;5032003;28;20040;-91
2021/12/15 01:12:48;;;;;;;213.75;38.15;;;;;;;8.38;100.00;102912.09;5035624;28;20025;-91
2021/12/15 01:22:00;;;;;;;198.65;35.33;;;;;;;8.41;100.00;102925.94;5055377;28;20095;-90
2021/12/15 01:25:10;;;;;;;202.68;35.20;;;;;;;8.39;100.00;102917.28;5063222;28;20055;-91
2021/12/15 01:28:03;;;;;;;202.88;35.17;;;;;;;8.39;100.00;102912.13;5053306;28;20113;-89
2021/12/15 01:31:04;;;;;;;224.23;36.53;;;;;;;8.38;100.00;102907.81;5055686;28;20044;-90
2021/12/15 01:34:01;;;;;;;196.00;33.72;;;;;;;8.45;100.00;102919.13;5050502;28;20089;-90
2021/12/15 01:37:17;;;;;;;208.70;34.80;;;;;;;8.38;100.00;102912.97;5057175;28;20178;-89
2021/12/15 01:40:00;;;;;;;210.07;35.70;;;;;;;8.39;100.00;102919.00;5021604;28;20044;-89
2021/12/15 01:43:02;;;;;;;212.45;34.92;;;;;;;8.43;100.00;102920.78;5063886;28;20028;-90
2021/12/15 01:49:01;;;;;;;204.98;33.90;;;;;;;8.46;100.00;102924.28;5056900;28;20504;-90
2021/12/15 01:52:00;;;;;;;188.88;32.88;;;;;;;8.37;100.00;102918.97;5035650;28;20459;-90
2021/12/15 01:54:59;;;;;;;;;;;;;;;;;;;;;
2021/12/15 01:57:48;;;;;;;214.90;36.53;;;;;;;8.36;100.00;102917.22;5052476;28;20556;-90
2021/12/15 02:04:40;;;;;;;199.90;34.67;;;;;;;8.40;100.00;102928.47;5023632;28;20063;-90
2021/12/15 02:07:28;;;;;;;;;;;;;;;;;;;;;
2021/12/15 02:13:45;;;;;;;204.73;33.53;;;;;;;8.43;100.00;102939.75;5037072;28;20132;-90
2021/12/15 02:16:57;;;;;;;218.70;35.20;;;;;;;8.36;100.00;102926.69;5015887;28;20095;-90
2021/12/15 02:23:22;;;;;;;208.40;35.17;;;;;;;8.36;100.00;102942.19;5013348;28;20062;-90
2021/12/15 02:26:21;;;;;;;197.68;34.05;;;;;;;8.32;100.00;102941.28;4990619;28;20052;-90
2021/12/15 02:28:59;;;;;;;216.50;35.50;;;;;;;8.31;100.00;102934.38;5007587;28;20072;-90
2021/12/15 02:34:21;;;;;;;213.93;35.42;;;;;;;8.40;100.00;102949.16;5008963;28;20057;-90
2021/12/15 02:37:23;;;;;;;211.85;34.97;;;;;;;8.41;100.00;102948.31;4986515;28;20491;-90
2021/12/15 02:40:16;;;;;;;203.93;33.95;;;;;;;8.30;100.00;102927.41;4982156;28;20042;-90
2021/12/15 02:42:51;;;;;;;224.13;34.83;;;;;;;8.38;100.00;102945.69;4987431;28;20729;-90
2021/12/15 02:45:33;;;;;;;;;;;;;;;8.45;100.00;102956.16;4991962;28;20127;-90
2021/12/15 02:48:04;;;;;;;190.82;31.02;;;;;;;8.35;100.00;102938.72;4991747;28;19919;-90
2021/12/15 02:50:48;;;;;;;197.88;34.92;;;;;;;8.31;100.00;102924.03;4995250;28;20037;-90
2021/12/15 02:56:49;;;;;;;212.35;34.28;;;;;;;8.36;100.00;102935.31;5037645;28;20544;-90
2021/12/15 02:59:37;;;;;;;209.80;33.53;;;;;;;8.35;100.00;102938.72;5001050;28;20051;-90
2021/12/15 03:02:14;;;;;;;221.43;35.28;;;;;;;8.34;100.00;102934.41;5019188;28;20066;-91
2021/12/15 03:05:14;;;;;;;207.35;33.78;;;;;;;8.37;100.00;102936.19;5018695;28;20075;-90
2021/12/15 03:17:18;;;;;;;204.20;32.70;;;;;;;8.41;100.00;102944.00;5017642;28;19920;-90
2021/12/15 03:19:59;;;;;;;221.88;36.22;;;;;;;8.40;100.00;102937.09;4936835;28;20066;-89
2021/12/15 03:22:38;;;;;;;209.15;32.47;;;;;;;8.40;100.00;102944.84;5068895;28;20556;-89
2021/12/15 03:25:29;;;;;;;223.00;36.13;;;;;;;8.36;100.00;102930.16;5040333;28;20051;-90
2021/12/15 03:33:54;;;;;;;217.02;33.72;;;;;;;8.29;100.00;102915.34;5048958;28;20154;-89
2021/12/15 03:42:22;;;;;;;194.93;30.35;;;;;;;8.29;100.00;102918.78;5041013;28;20029;-91
2021/12/15 03:45:05;;;;;;;226.77;33.55;;;;;;;8.32;100.00;102924.03;5050095;28;20056;-90
2021/12/15 03:47:44;;;;;;;201.27;30.88;;;;;;;8.30;100.00;102925.75;5043284;28;20048;-90
2021/12/15 03:50:22;;;;;;;223.05;34.20;;;;;;;8.33;100.00;102930.94;5047278;28;20078;-90
2021/12/15 03:52:53;;;;;;;215.38;32.22;;;;;;;8.29;100.00;102938.59;5048040;28;20025;-90
2021/12/15 03:55:27;;;;;;;210.90;33.15;;;;;;;8.27;100.00;102933.38;5032642;28;20509;-90
2021/12/15 03:58:06;;;;;;;207.98;34.42;;;;;;;8.28;100.00;102936.84;5037835;28;20196;-89
2021/12/15 04:00:53;;;;;;;195.75;31.88;;;;;;;8.39;100.00;102956.06;5021111;28;20056;-90
2021/12/15 04:03:57;;;;;;;199.50;31.45;;;;;;;8.34;100.00;102947.31;5030640;28;20048;-89
2021/12/15 04:06:35;;;;;;;199.60;32.20;;;;;;;8.33;100.00;102946.44;5038810;28;20127;-90
2021/12/15 04:09:05;;;;;;;196.70;32.65;;;;;;;8.42;100.00;102957.81;5032190;28;20045;-90
2021/12/15 04:11:56;;;;;;;200.52;32.50;;;;;;;8.30;100.00;102941.25;5039575;28;20037;-90
2021/12/15 04:17:45;;;;;;;174.88;30.17;;;;;;;8.40;100.00;102954.31;5004443;28;20040;-90
2021/12/15 04:20:29;;;;;;;192.95;30.92;;;;;;;8.39;100.00;102956.06;5027742;28;20047;-90
2021/12/15 04:23:01;;;;;;;197.37;30.50;;;;;;;8.33;100.00;102943.88;5033425;28;20073;-90
2021/12/15 04:26:01;;;;;;;;;;;;;;;;;;;;;
2021/12/15 04:28:49;;;;;;;193.05;30.95;;;;;;;8.40;100.00;102954.31;5046316;28;20486;-90
2021/12/15 04:31:25;;;;;;;204.55;31.75;;;;;;;8.37;100.00;102952.56;5046463;28;20029;-89
2021/12/15 04:34:20;;;;;;;193.32;30.23;;;;;;;8.37;100.00;102957.72;5049456;28;20394;-89
2021/12/15 04:37:03;;;;;;;192.20;30.80;;;;;;;8.35;100.00;102950.78;5006840;28;20063;-90
2021/12/15 04:39:32;;;;;;;187.30;29.98;;;;;;;8.40;100.00;102962.06;5033185;28;20303;-90
2021/12/15 04:42:03;;;;;;;187.27;29.70;;;;;;;8.38;100.00;102962.06;5029917;28;20067;-89
2021/12/15 04:44:41;;;;;;;191.40;30.17;;;;;;;8.32;100.00;102960.22;5035717;28;20478;-90
2021/12/15 04:47:22;;;;;;;181.20;30.02;;;;;;;8.31;100.00;102950.75;5029217;28;20066;-90
2021/12/15 04:49:56;;;;;;;194.02;30.23;;;;;;;8.42;100.00;102971.59;5047873;28;20033;-90
2021/12/15 04:52:38;;;;;;;177.05;30.33;;;;;;;8.43;100.00;102975.94;5032932;28;20029;-89
2021/12/15 04:55:17;;;;;;;177.38;29.05;;;;;;;8.36;100.00;102963.75;5033053;28;20075;-89
2021/12/15 04:57:59;;;;;;;178.90;28.65;;;;;;;8.39;100.00;102968.09;5048821;28;20025;-90
2021/12/15 05:00:35;;;;;;;183.75;30.17;;;;;;;8.35;100.00;102966.28;5019861;28;20068;-89
2021/12/15 05:03:04;;;;;;;182.45;28.80;;;;;;;8.35;100.00;102961.13;5017299;28;20025;-90
2021/12/15 05:08:56;;;;;;;171.73;27.98;;;;;;;8.40;100.00;102967.22;5051731;28;20194;-90
2021/12/15 05:11:54;;;;;;;172.75;29.70;;;;;;;8.42;100.00;102971.59;5034831;28;20501;-90
2021/12/15 05:14:34;;;;;;;190.45;30.67;;;;;;;8.44;100.00;102969.94;5031838;28;20040;-90
2021/12/15 05:17:02;;;;;;;168.50;28.90;;;;;;;8.49;100.00;102982.94;5036913;28;20455;-91
2021/12/15 05:19:32;;;;;;;178.57;28.95;;;;;;;8.43;100.00;102978.53;5051251;28;20024;-89
2021/12/15 05:22:04;;;;;;;177.77;29.10;;;;;;;8.47;100.00;102984.59;5044853;28;20083;-90
2021/12/15 05:24:37;;;;;;;183.88;29.95;;;;;;;8.43;100.00;102978.53;5038543;28;20556;-91
2021/12/15 05:27:14;;;;;;;183.85;30.42;;;;;;;8.48;100.00;102983.78;5048611;28;20444;-91
2021/12/15 05:30:02;;;;;;;;;;;;;;;;;;;;;
2021/12/15 05:32:40;;;;;;;169.30;27.52;;;;;;;8.44;100.00;102987.16;5051623;28;20029;-90
2021/12/15 05:35:42;;;;;;;165.02;27.73;;;;;;;8.49;100.00;102981.22;5041951;28;20036;-89
2021/12/15 05:38:10;;;;;;;177.52;28.67;;;;;;;8.49;100.00;102981.22;5036363;28;20055;-90
2021/12/15 05:40:41;;;;;;;166.93;27.25;;;;;;;8.56;100.00;103000.31;5033861;28;20410;-90
2021/12/15 05:43:18;;;;;;;167.60;28.00;;;;;;;8.53;100.00;102983.00;5057397;28;20099;-90
2021/12/15 05:46:13;;;;;;;176.30;28.27;;;;;;;8.54;100.00;102987.34;5034622;28;20040;-90
2021/12/15 05:49:02;;;;;;;161.68;27.85;;;;;;;8.46;100.00;102972.56;5033643;28;20041;-90
2021/12/15 05:51:43;;;;;;;;;;;;;;;;;;;;;
2021/12/15 05:54:29;;;;;;;172.88;28.63;;;;;;;8.51;100.00;102991.59;5062137;28;20100;-89
2021/12/15 05:57:00;;;;;;;170.93;28.63;;;;;;;8.46;100.00;102980.31;5028964;28;20128;-89
2021/12/15 05:59:48;;;;;;;173.20;27.85;;;;;;;8.47;100.00;102975.13;5051770;28;20033;-90
2021/12/15 06:02:35;;;;;;;174.82;28.17;;;;;;;8.47;100.00;102979.44;5037245;28;20025;-90
2021/12/15 06:05:01;;;;;;;166.05;29.13;;;;;;;8.48;100.00;102982.06;5037735;28;20113;-90
2021/12/15 06:07:40;;;;;;;178.75;27.65;;;;;;;8.51;100.00;102995.06;5040242;28;20127;-90
2021/12/15 06:13:27;;;;;;;165.18;27.95;;;;;;;8.58;100.00;103001.22;5050712;28;20330;-90
2021/12/15 06:16:05;;;;;;;165.95;28.23;;;;;;;8.46;100.00;102983.72;5032973;28;20040;-90
2021/12/15 06:18:48;;;;;;;179.15;29.48;;;;;;;8.57;100.00;103002.03;5047059;28;20115;-90
2021/12/15 06:21:31;;;;;;;185.20;29.92;;;;;;;8.51;100.00;102989.00;5040244;28;20484;-90
2021/12/15 06:24:11;;;;;;;177.02;28.83;;;;;;;8.48;100.00;102992.41;5028164;28;20028;-90
2021/12/15 06:26:53;;;;;;;186.70;30.42;;;;;;;8.59;100.00;103018.47;5032330;28;20028;-90
2021/12/15 06:29:51;;;;;;;188.30;30.05;;;;;;;8.52;100.00;103007.13;5041642;28;20025;-90
2021/12/15 06:32:23;;;;;;;176.82;27.85;;;;;;;8.56;100.00;103016.69;5043091;28;20067;-89
2021/12/15 06:35:24;;;;;;;172.95;28.38;;;;;;;8.61;100.00;103024.53;5038671;28;20109;-90
2021/12/15 06:38:06;;;;;;;185.43;29.45;;;;;;;8.54;100.00;103014.91;5034293;28;20039;-91
2021/12/15 06:40:46;;;;;;;183.75;30.15;;;;;;;8.63;100.00;103028.00;5033072;28;20029;-90
2021/12/15 06:43:48;;;;;;;184.50;27.92;;;;;;;8.55;100.00;103024.41;5035413;28;20021;-90
2021/12/15 06:47:02;;;;;;;183.13;28.30;;;;;;;8.53;100.00;103011.44;5032908;28;20110;-90
2021/12/15 06:58:17;;;;;;;191.60;28.70;;;;;;;8.52;100.00;103008.84;5048989;28;20116;-91
2021/12/15 07:01:04;;;;;;;198.23;29.65;;;;;;;8.54;100.00;103010.59;5050454;28;20045;-90
2021/12/15 07:03:42;;;;;;;183.98;28.77;;;;;;;8.51;100.00;103010.56;5033950;28;20397;-91
2021/12/15 07:06:19;;;;;;;192.27;28.20;;;;;;;8.59;100.00;103027.09;5038274;28;20119;-90
2021/12/15 07:08:45;;;;;;;197.98;29.85;;;;;;;8.60;100.00;103035.69;5051459;28;20029;-91
2021/12/15 07:11:19;;;;;;;197.60;29.13;;;;;;;8.60;100.00;103033.97;5040883;28;20033;-91
2021/12/15 07:14:15;;;;;;;209.63;30.67;;;;;;;8.58;100.00;103040.84;5030783;28;20456;-91
2021/12/15 07:17:09;;;;;;;212.32;31.13;;;;;;;8.54;100.00;103033.88;5034892;28;20037;-90
2021/12/15 07:22:32;;;;;;;196.65;31.08;;;;;;;8.56;100.00;103037.38;5043636;28;20084;-91
2021/12/15 07:25:02;;;;;;;196.30;28.98;;;;;;;8.60;100.00;103044.31;5032162;28;20068;-90
2021/12/15 07:27:35;;;;;;;204.77;31.98;;;;;;;8.55;100.00;103035.63;5032330;28;20028;-91
2021/12/15 07:30:01;;;;;;;191.40;30.25;;;;;;;8.67;100.00;103064.28;5037456;28;20040;-90
2021/12/15 07:32:39;;;;;;;197.52;29.80;;;;;;;8.60;100.00;103046.91;5060194;28;20115;-90
2021/12/15 07:35:10;;;;;;;205.18;30.17;;;;;;;8.63;100.00;103048.69;5037898;28;20413;-90
2021/12/15 07:37:36;;;;;;;191.63;30.88;;;;;;;8.58;100.00;103038.28;5033280;28;20024;-90
2021/12/15 07:40:10;;;;;;;208.55;30.90;;;;;;;8.63;100.00;103048.69;5064368;28;20028;-90
2021/12/15 07:43:06;;;;;;;222.93;30.02;;;;;;;8.58;100.00;103040.84;5033057;28;20379;-91
2021/12/15 07:49:02;;;;;;;193.20;29.77;;;;;;;8.59;100.00;103041.72;5039314;28;20555;-90
2021/12/15 07:51:59;;;;;;;198.20;28.83;;;;;;;8.69;100.00;103062.63;5025848;28;20025;-90
2021/12/15 07:54:57;;;;;;;197.20;29.73;;;;;;;8.61;100.00;103051.25;4996831;28;20511;-90
2021/12/15 07:57:50;;;;;;;203.40;30.67;;;;;;;8.60;100.00;103051.19;5039208;28;20032;-91
2021/12/15 08:00:34;;;;;;;208.07;31.30;;;;;;;8.70;100.00;103068.66;5061944;28;20052;-90
2021/12/15 08:03:14;;;;;;;;;;;;;;;;;;;;;
2021/12/15 08:05:53;;;;;;;214.45;29.35;;;;;;;8.63;100.00;103048.69;5051101;28;19927;-92
2021/12/15 08:11:58;;;;;;;237.82;33.05;;;;;;;8.71;100.00;103070.41;5067048;28;20274;-90
2021/12/15 08:17:57;;;;;;;213.00;30.08;;;;;;;8.73;100.00;103073.91;5062570;28;20561;-90
2021/12/15 08:23:31;;;;;;;230.85;32.55;;;;;;;8.71;100.00;103067.81;5007192;28;20041;-90
2021/12/15 08:25:57;;;;;;;233.18;32.63;;;;;;;8.69;100.00;103070.38;5051861;28;20063;-90
2021/12/15 08:32:12;;;;;;;245.82;33.38;;;;;;;8.82;100.00;103080.94;5041937;28;20493;-90
2021/12/15 08:34:45;;;;;;;238.07;34.88;;;;;;;8.83;100.00;103072.34;5035841;28;20559;-91
2021/12/15 08:37:22;;;;;;;229.43;33.30;;;;;;;8.84;100.00;103080.16;5046326;28;20052;-90
2021/12/15 08:39:48;;;;;;;222.80;31.13;;;;;;;8.85;100.00;103084.47;5032589;28;20025;-90
2021/12/15 08:42:27;;;;;;;236.85;32.13;;;;;;;8.90;100.00;103097.50;5041948;28;20131;-90
2021/12/15 08:45:01;;;;;;;245.63;34.08;;;;;;;8.87;100.00;103089.69;5047814;28;20048;-90
2021/12/15 08:48:00;;;;;;;229.45;31.75;;;;;;;8.97;100.00;103087.28;5039148;28;20088;-91
2021/12/15 08:50:52;;;;;;;232.52;32.88;;;;;;;8.95;100.00;103086.38;5045563;28;20473;-91
2021/12/15 08:56:48;;;;;;;221.68;32.58;;;;;;;8.92;100.00;103072.53;5055928;28;20776;-91
2021/12/15 08:59:39;;;;;;;228.50;32.67;;;;;;;8.97;100.00;103076.06;5041956;28;20517;-90
2021/12/15 09:02:23;;;;;;;;;;;;;;;;;;;;;
2021/12/15 09:05:06;;;;;;;217.82;33.38;;;;;;;8.99;100.00;103083.03;5049718;28;20063;-90
2021/12/15 09:07:35;;;;;;;234.82;33.75;;;;;;;8.94;100.00;103073.44;5054697;28;20024;-91
2021/12/15 09:10:01;;;;;;;246.75;33.38;;;;;;;9.01;100.00;103083.03;5071844;28;20024;-90
2021/12/15 09:12:50;;;;;;;230.45;33.50;;;;;;;9.10;100.00;103099.63;5063766;28;20033;-90
2021/12/15 09:15:34;;;;;;;243.82;33.53;;;;;;;9.10;100.00;103094.44;5036123;28;20052;-90
2021/12/15 09:18:04;;;;;;;245.10;35.03;;;;;;;9.06;100.00;103084.00;5046904;28;20052;-90
2021/12/15 09:20:43;;;;;;;228.52;33.97;;;;;;;9.20;100.00;103110.16;5044068;28;20317;-89
2021/12/15 09:23:41;;;;;;;226.65;32.78;;;;;;;9.11;100.00;103087.56;5020483;28;20529;-89
2021/12/15 09:26:13;;;;;;;222.50;32.17;;;;;;;9.21;100.00;103110.16;5014596;28;20022;-90
2021/12/15 09:28:50;;;;;;;230.95;34.40;;;;;;;9.24;100.00;103107.63;5032299;28;20033;-89
2021/12/15 09:31:30;;;;;;;228.13;35.00;;;;;;;9.28;100.00;103113.75;5024419;28;20099;-89
2021/12/15 09:34:17;;;;;;;227.73;34.33;;;;;;;9.19;100.00;103106.69;5033544;28;20402;-89
2021/12/15 09:36:54;;;;;;;243.60;36.70;;;;;;;9.30;100.00;103120.66;5034796;28;20147;-90
2021/12/15 09:39:54;;;;;;;229.10;33.17;;;;;;;9.27;100.00;103102.53;5048154;28;20438;-90
2021/12/15 09:42:34;;;;;;;220.02;32.85;;;;;;;9.32;100.00;103116.41;5007264;28;20478;-90
2021/12/15 10:02:18;;;;;;;221.20;32.53;;;;;;;9.48;100.00;103112.38;5039133;28;20052;-90
2021/12/15 10:04:57;;;;;;;234.77;35.15;;;;;;;9.57;100.00;103116.81;5048171;28;20025;-89
2021/12/15 10:19:08;;;;;;;222.87;35.67;;;;;;;9.94;98.22;103126.94;5048528;28;20075;-88
2021/12/15 10:21:35;;;;;;;214.00;33.05;;;;;;;9.98;98.30;103131.31;5053775;28;20298;-89
2021/12/15 10:24:01;;;;;;;233.85;36.17;;;;;;;9.89;98.72;103113.06;5061914;28;20035;-89
2021/12/15 10:26:27;;;;;;;215.90;36.65;;;;;;;9.97;97.77;103110.56;5035845;28;20177;-89
2021/12/15 10:28:53;;;;;;;230.45;36.30;;;;;;;10.05;98.28;103119.31;5064121;28;20377;-89
2021/12/15 10:31:22;;;;;;;229.93;37.97;;;;;;;10.14;97.23;103135.88;5049445;28;20036;-89
2021/12/15 10:33:55;;;;;;;228.85;36.80;;;;;;;10.13;97.38;103107.34;5067382;28;20442;-89
2021/12/15 10:36:32;;;;;;;235.48;36.88;;;;;;;10.20;97.34;103104.03;5054482;28;20086;-89
2021/12/15 10:39:01;;;;;;;232.43;38.00;;;;;;;10.17;96.99;103101.38;5040933;28;20017;-89
2021/12/15 10:41:35;;;;;;;222.02;38.10;;;;;;;10.29;97.67;103119.72;5037457;28;20111;-90
2021/12/15 10:44:17;;;;;;;225.82;36.90;;;;;;;10.31;96.96;103110.22;5055606;28;20516;-89
2021/12/15 10:47:06;;;;;;;220.30;38.47;;;;;;;10.35;96.89;103105.97;5058240;28;20029;-88
2021/12/15 10:49:37;;;;;;;205.40;34.78;;;;;;;10.43;97.01;103119.91;5070748;28;20063;-88
2021/12/15 10:52:08;;;;;;;221.45;37.03;;;;;;;10.52;96.42;103117.44;5075374;28;20025;-89
2021/12/15 10:54:45;;;;;;;209.27;36.65;;;;;;;10.55;94.84;103131.31;5040734;28;20020;-88
2021/12/15 10:57:14;;;;;;;221.13;37.40;;;;;;;10.44;95.77;103122.50;5052058;28;20023;-89
2021/12/15 10:59:49;;;;;;;213.20;37.58;;;;;;;10.48;95.71;103134.69;5054578;28;20099;-89
2021/12/15 11:02:20;;;;;;;226.73;37.78;;;;;;;10.43;95.64;103115.59;5025109;28;20025;-89
2021/12/15 11:04:49;;;;;;;231.48;39.97;;;;;;;10.42;95.71;103107.81;5057663;28;20016;-88
2021/12/15 11:07:20;;;;;;;221.63;36.85;;;;;;;10.56;95.20;103127.88;5034085;28;20032;-89
2021/12/15 11:10:12;;;;;;;213.15;37.75;;;;;;;10.54;95.18;103133.88;5032884;28;20044;-89
2021/12/15 11:12:39;;;;;;;230.60;38.35;;;;;;;10.49;95.12;103130.38;5030498;28;20056;-89
2021/12/15 11:15:14;;;;;;;223.05;38.13;;;;;;;10.43;95.53;103125.09;5037143;28;20645;-88
2021/12/15 11:17:49;;;;;;;216.93;37.47;;;;;;;10.46;95.54;103135.50;5028827;28;20381;-88
2021/12/15 11:20:33;;;;;;;214.75;39.38;;;;;;;10.37;95.42;103110.34;5056961;28;20036;-90
2021/12/15 11:23:10;;;;;;;224.05;40.95;;;;;;;10.43;95.62;103123.38;5024628;28;20528;-89
2021/12/15 11:25:38;;;;;;;219.32;39.40;;;;;;;10.48;95.16;103126.03;5046301;28;20392;-88
2021/12/15 11:28:17;;;;;;;217.45;38.70;;;;;;;10.44;95.57;103108.69;5032312;28;20082;-89
2021/12/15 11:30:45;;;;;;;227.25;40.50;;;;;;;10.59;95.46;103124.44;5047996;28;20103;-88
2021/12/15 11:33:17;;;;;;;220.38;39.97;;;;;;;10.61;95.23;103117.56;5066429;28;20036;-88
2021/12/15 11:35:48;;;;;;;230.65;43.47;;;;;;;10.54;94.58;103094.97;5058323;28;20086;-88
2021/12/15 11:38:23;;;;;;;226.93;41.53;;;;;;;10.63;94.49;103121.91;5059880;28;20032;-88
2021/12/15 11:41:02;;;;;;;211.15;40.88;;;;;;;10.65;95.00;103124.50;5063166;28;20032;-88
2021/12/15 11:43:47;;;;;;;223.07;40.15;;;;;;;10.68;95.71;103119.38;5032879;28;20048;-88
2021/12/15 11:46:44;;;;;;;223.02;41.47;;;;;;;10.69;94.75;103101.25;5013610;28;20398;-88
2021/12/15 11:49:22;;;;;;;228.68;40.28;;;;;;;10.77;94.19;103111.72;5004899;28;20075;-88
2021/12/15 11:51:50;;;;;;;210.52;39.42;;;;;;;10.80;94.44;103106.53;5039235;28;20044;-89
2021/12/15 11:54:21;;;;;;;229.40;43.72;;;;;;;10.85;92.98;103111.81;5037354;28;20552;-87
2021/12/15 11:56:57;;;;;;;213.48;40.08;;;;;;;10.75;94.01;103094.38;5061754;28;20032;-89
2021/12/15 11:59:31;;;;;;;196.60;39.33;;;;;;;10.79;93.30;103102.19;5055489;28;20451;-88
2021/12/15 12:02:09;;;;;;;216.88;40.20;;;;;;;10.80;93.74;103106.53;5053295;28;20024;-88
2021/12/15 12:04:52;;;;;;;209.77;39.65;;;;;;;10.87;93.86;103104.88;5041591;28;20712;-88
2021/12/15 12:07:33;;;;;;;212.52;41.17;;;;;;;10.84;94.19;103103.16;5053520;28;20103;-88
2021/12/15 12:10:05;;;;;;;207.60;40.05;;;;;;;10.85;92.99;103112.66;5043052;28;20040;-88
2021/12/15 12:12:39;;;;;;;201.75;38.95;;;;;;;10.76;92.86;103101.31;5055755;28;20056;-88
2021/12/15 12:15:14;;;;;;;208.95;41.08;;;;;;;10.75;93.25;103095.25;5056844;28;20424;-88
2021/12/15 12:17:47;;;;;;;205.20;39.88;;;;;;;10.84;93.40;103110.94;5031530;28;20025;-88
2021/12/15 12:21:02;;;;;;;201.15;39.97;;;;;;;10.88;93.96;103107.50;5036527;28;20111;-89
2021/12/15 12:24:02;;;;;;;186.90;36.60;;;;;;;10.90;93.97;103094.56;5011338;28;20069;-94
2021/12/15 12:26:31;;;;;;;185.60;38.58;;;;;;;10.85;92.82;103099.66;4988561;28;20050;-91
2021/12/15 12:28:57;;;;;;;188.73;38.17;;;;;;;10.86;93.67;103104.00;5016891;28;20075;-91
2021/12/15 12:31:28;;;;;;;190.50;39.25;;;;;;;10.85;92.38;103094.47;5010842;28;20037;-91
2021/12/15 12:33:54;;;;;;;195.48;40.33;;;;;;;10.86;92.18;103090.16;5013060;28;20026;-90
2021/12/15 12:36:28;;;;;;;194.00;40.83;;;;;;;10.90;92.26;103103.22;5010089;28;20401;-91
2021/12/15 12:38:58;;;;;;;190.00;39.77;;;;;;;10.87;92.28;103100.56;5032313;28;20456;-91
2021/12/15 12:41:30;;;;;;;189.93;40.30;;;;;;;10.73;91.90;103081.38;5032364;28;20284;-90
2021/12/15 12:44:03;;;;;;;184.15;38.85;;;;;;;10.80;92.82;103095.28;5029263;28;20268;-90
2021/12/15 12:46:38;;;;;;;194.15;39.15;;;;;;;10.72;92.60;103084.81;5033466;28;20092;-89
2021/12/15 12:49:47;;;;;;;190.02;39.50;;;;;;;10.69;93.30;103077.03;5009328;28;20440;-92
2021/12/15 12:59:22;;;;;;;185.18;37.95;;;;;;;10.78;91.91;103078.88;5029461;28;20040;-89
2021/12/15 13:00:49;;;;;;;182.93;38.03;;;;;;;10.85;92.38;103076.31;5027843;28;20486;-89
2021/12/15 13:03:57;;;;;;;175.32;37.40;;;;;;;10.78;93.20;103069.31;5011806;28;20026;-89
2021/12/15 13:06:30;;;;;;;188.48;39.60;;;;;;;10.79;92.35;103063.28;4985689;28;20558;-89
2021/12/15 13:09:04;;;;;;;179.23;39.47;;;;;;;10.88;92.18;103076.38;5018323;28;20037;-89
2021/12/15 13:11:35;;;;;;;173.23;38.03;;;;;;;10.78;92.47;103051.16;5023548;28;20036;-89
2021/12/15 13:14:05;;;;;;;164.10;37.65;;;;;;;10.93;91.83;103071.22;5013206;28;20293;-89
2021/12/15 13:16:54;;;;;;;175.50;38.08;;;;;;;10.92;91.51;103069.47;5011151;28;20025;-89
2021/12/15 13:19:27;;;;;;;169.63;37.55;;;;;;;10.87;91.32;103071.16;5028681;28;20049;-89
2021/12/15 13:30:58;;;;;;;166.57;35.97;;;;;;;10.60;91.56;103076.91;5048580;28;20509;-89
2021/12/15 13:33:43;;;;;;;156.03;35.80;;;;;;;10.59;92.07;103089.00;5047877;28;20498;-89
2021/12/15 13:36:19;;;;;;;;;;;;;;;10.61;92.79;103089.03;5051838;28;20035;-89
2021/12/15 13:38:52;;;;;;;153.05;33.83;;;;;;;10.56;91.51;103095.88;5051387;28;19956;-90
2021/12/15 13:41:22;;;;;;;161.60;35.92;;;;;;;10.56;92.13;103090.69;5048114;28;20110;-89
2021/12/15 13:44:02;;;;;;;151.32;35.28;;;;;;;10.55;92.17;103088.94;5039414;28;20025;-90
2021/12/15 13:46:30;;;;;;;150.70;35.85;;;;;;;10.52;91.80;103088.91;5034793;28;20028;-90
2021/12/15 13:48:57;;;;;;;153.80;36.20;;;;;;;10.50;91.77;103095.81;5034497;28;20031;-89
2021/12/15 13:51:54;;;;;;;154.85;34.95;;;;;;;10.52;92.15;103091.50;5050998;28;20405;-89
2021/12/15 13:54:43;;;;;;;149.45;32.70;;;;;;;10.42;92.26;103080.16;5030225;28;20060;-89
2021/12/15 13:57:20;;;;;;;147.60;34.75;;;;;;;10.46;91.73;103081.03;5035751;28;20102;-89
2021/12/15 13:59:51;;;;;;;147.65;36.08;;;;;;;10.49;91.67;103094.94;5045555;28;20112;-89
2021/12/15 14:02:22;;;;;;;138.15;33.97;;;;;;;10.45;91.94;103082.75;5042532;28;20029;-88
2021/12/15 14:04:55;;;;;;;143.30;33.15;;;;;;;10.48;91.92;103093.19;5053235;28;20031;-89
2021/12/15 14:07:47;;;;;;;143.45;32.47;;;;;;;10.40;92.41;103084.44;5052626;28;20222;-88
2021/12/15 14:10:12;;;;;;;139.23;34.50;;;;;;;10.47;92.01;103101.81;5037312;28;20049;-89
2021/12/15 14:12:47;;;;;;;144.75;35.03;;;;;;;10.49;92.35;103109.63;5043683;28;20057;-89
2021/12/15 14:15:35;;;;;;;145.60;34.42;;;;;;;10.42;92.64;103089.66;5051299;28;20505;-89
2021/12/15 14:18:07;;;;;;;140.73;34.42;;;;;;;10.38;92.06;103091.31;5051513;28;20203;-89
2021/12/15 14:20:44;;;;;;;146.38;34.35;;;;;;;10.31;93.29;103084.31;5032822;28;20029;-89
2021/12/15 14:23:14;;;;;;;144.90;35.47;;;;;;;10.34;92.25;103086.94;5050215;28;20044;-89
2021/12/15 14:25:41;;;;;;;147.90;35.80;;;;;;;10.29;92.30;103079.13;5035015;28;20017;-88
2021/12/15 14:28:18;;;;;;;144.45;35.05;;;;;;;10.31;92.54;103097.25;5050904;28;20029;-88
2021/12/15 14:30:46;;;;;;;145.00;34.97;;;;;;;10.24;92.94;103095.44;5052946;28;20021;-95
2021/12/15 14:33:30;;;;;;;147.95;35.88;;;;;;;10.22;92.89;103108.41;5050856;28;20049;-95
2021/12/15 14:35:58;;;;;;;152.63;36.65;;;;;;;10.22;92.92;103099.75;5048313;28;20029;-95